CEFAS Endeavour — VQHF3 — position and weather

sailwx.info

Track history (hours):
 
Tides and Currents Weather Stations Pressure Air Temp Water Temp Dewpoint Dewpoint Depression Visibility Wind Speed Wind Dir Waves Ship Positions

Oceanographic research ship CEFAS Endeavour (UK)

Detailed information on ship capabilities available from University of Delaware's Ocean Information Center.

Last reported at 2015-Sep-03 18:32 UTC. Time now 2015-Sep-03 19:19 UTC.
Position N 53°59' E 000°01'.

Length 74 m; draft 8.6 m.

Type: Cargo ship. MMSI: 235005270.

Date/timePositionNaut miles runAvg speedWind from/ knotsBaromVisibWave heightAir tempDewpointWater temp
2015-Sep-03 18:32N 53°59' E 000°01'0 0.3
2015-Sep-03 17:33N 53°60' E 000°01'0 0.4
2015-Sep-03 16:33N 53°60' E 000°00'1 1.2
2015-Sep-03 15:33N 53°59' W 000°02'3 3.2
2015-Sep-03 14:33N 54°02' W 000°00'9 9.3
2015-Sep-03 13:33N 54°11' E 000°04'1010.4
2015-Sep-03 12:33N 54°22' E 000°01'1111.0
2015-Sep-03 11:33N 54°33' W 000°03'1211.6
2015-Sep-03 10:33N 54°44' W 000°06'  
2015-Aug-26 15:32N 57°49' W 001°17'47 5.2
2015-Aug-26 06:33N 57°09' W 002°02'2 0.9
2015-Aug-26 04:27N 57°09' W 002°05'0 0.0
2015-Aug-26 03:27N 57°09' W 002°05'0 0.0
2015-Aug-26 02:33N 57°09' W 002°05'0 0.0
2015-Aug-26 01:33N 57°09' W 002°05'0 0.0
2015-Aug-26 00:33N 57°09' W 002°05'0 0.0
2015-Aug-25 23:33N 57°09' W 002°05'0 0.0
2015-Aug-25 22:33N 57°09' W 002°05'0 0.0
2015-Aug-25 21:33N 57°09' W 002°05'0 0.0
2015-Aug-25 20:33N 57°09' W 002°05'0 0.0
2015-Aug-25 19:27N 57°09' W 002°05'0 0.0
2015-Aug-25 18:27N 57°09' W 002°05'0 0.0
2015-Aug-25 17:27N 57°09' W 002°05'0 0.0
2015-Aug-25 15:15N 57°09' W 002°05'0 0.0
2015-Aug-25 14:33N 57°09' W 002°05'0 0.0
2015-Aug-25 12:09N 57°09' W 002°05'0 0.0
2015-Aug-25 11:21N 57°09' W 002°05'0 0.0
2015-Aug-25 10:15N 57°09' W 002°05'0 0.0
2015-Aug-25 09:33N 57°09' W 002°05'0 0.0
2015-Aug-25 08:33N 57°09' W 002°05'0 0.0
2015-Aug-25 07:27N 57°09' W 002°05'0 0.0
2015-Aug-25 06:27N 57°09' W 002°05'0 0.0
2015-Aug-25 05:21N 57°09' W 002°05'0 0.0
2015-Aug-25 04:33N 57°09' W 002°05'0 0.0
2015-Aug-25 03:33N 57°09' W 002°05'0 0.0
2015-Aug-25 02:33N 57°09' W 002°05'0 0.0
2015-Aug-25 01:33N 57°09' W 002°05'0 0.0
2015-Aug-24 23:33N 57°09' W 002°05'0 0.0
2015-Aug-24 22:33N 57°09' W 002°05'0 0.0
2015-Aug-24 21:27N 57°09' W 002°05'0 0.0
2015-Aug-24 20:33N 57°09' W 002°05'0 0.0
2015-Aug-24 19:27N 57°09' W 002°05'  
Track history (hours):
 
Tides and Currents Weather Stations Pressure Air Temp Water Temp Dewpoint Dewpoint Depression Visibility Wind Speed Wind Dir Waves Ship Positions

Oceanographic research ship CEFAS Endeavour (UK)

Detailed information on ship capabilities available from University of Delaware's Ocean Information Center.

Last reported at 2015-Sep-03 18:32 UTC. Time now 2015-Sep-03 19:19 UTC.
Position N 53°59' E 000°01'.

Length 74 m; draft 8.6 m.

Type: Cargo ship. MMSI: 235005270.

Date/timePositionNaut miles runAvg speedWind from/ knotsBaromVisibWave heightAir tempDewpointWater temp
2015-Sep-03 18:32N 53°59' E 000°01'0 0.3
2015-Sep-03 17:33N 53°60' E 000°01'0 0.4
2015-Sep-03 16:33N 53°60' E 000°00'1 1.2
2015-Sep-03 15:33N 53°59' W 000°02'3 3.2
2015-Sep-03 14:33N 54°02' W 000°00'9 9.3
2015-Sep-03 13:33N 54°11' E 000°04'1010.4
2015-Sep-03 12:33N 54°22' E 000°01'1111.0
2015-Sep-03 11:33N 54°33' W 000°03'1211.6
2015-Sep-03 10:33N 54°44' W 000°06'  
2015-Aug-26 15:32N 57°49' W 001°17'47 5.2
2015-Aug-26 06:33N 57°09' W 002°02'2 0.9
2015-Aug-26 04:27N 57°09' W 002°05'0 0.0
2015-Aug-26 03:27N 57°09' W 002°05'0 0.0
2015-Aug-26 02:33N 57°09' W 002°05'0 0.0
2015-Aug-26 01:33N 57°09' W 002°05'0 0.0
2015-Aug-26 00:33N 57°09' W 002°05'0 0.0
2015-Aug-25 23:33N 57°09' W 002°05'0 0.0
2015-Aug-25 22:33N 57°09' W 002°05'0 0.0
2015-Aug-25 21:33N 57°09' W 002°05'0 0.0
2015-Aug-25 20:33N 57°09' W 002°05'0 0.0
2015-Aug-25 19:27N 57°09' W 002°05'0 0.0
2015-Aug-25 18:27N 57°09' W 002°05'0 0.0
2015-Aug-25 17:27N 57°09' W 002°05'0 0.0
2015-Aug-25 15:15N 57°09' W 002°05'0 0.0
2015-Aug-25 14:33N 57°09' W 002°05'0 0.0
2015-Aug-25 12:09N 57°09' W 002°05'0 0.0
2015-Aug-25 11:21N 57°09' W 002°05'0 0.0
2015-Aug-25 10:15N 57°09' W 002°05'0 0.0
2015-Aug-25 09:33N 57°09' W 002°05'0 0.0
2015-Aug-25 08:33N 57°09' W 002°05'0 0.0
2015-Aug-25 07:27N 57°09' W 002°05'0 0.0
2015-Aug-25 06:27N 57°09' W 002°05'0 0.0
2015-Aug-25 05:21N 57°09' W 002°05'0 0.0
2015-Aug-25 04:33N 57°09' W 002°05'0 0.0
2015-Aug-25 03:33N 57°09' W 002°05'0 0.0
2015-Aug-25 02:33N 57°09' W 002°05'0 0.0
2015-Aug-25 01:33N 57°09' W 002°05'0 0.0
2015-Aug-24 23:33N 57°09' W 002°05'0 0.0
2015-Aug-24 22:33N 57°09' W 002°05'0 0.0
2015-Aug-24 21:27N 57°09' W 002°05'0 0.0
2015-Aug-24 20:33N 57°09' W 002°05'0 0.0
2015-Aug-24 19:27N 57°09' W 002°05'  

Dump ship's entire track history